CSUN Campus Station - National Weather Service Data Page - PST Time




                Date      RH     Dew  Seasonal     Current   Max Air   Min Air    Wind    Wind    Wind    Gust     Bar    Rain
                Time       %   Point      Rain    Air Temp     Since     Since   Speed    Gust     Dir     Dir   Press   Total
                               Deg F    Inches       Deg F  Midnight  Midnight     MPH     MPH                      mb  Inches
------------------------------------------------------------------------------------------------------------------------------
    04/24/2015 00:00      72    47.5      8.86        56.2      66.3      48.8       1       2     152     156    1012    0.00
    04/24/2015 00:10      73    47.5      8.86        56.2      56.3      55.9       0       1     161     167    1012    0.00
    04/24/2015 00:20      73    47.5      8.86        56.1      56.3      55.9       0       3     176     187    1012    0.00
    04/24/2015 00:30      74    47.7      8.86        56.1      56.3      55.8       0       2     222     250    1012    0.00
    04/24/2015 00:40      74    47.7      8.86        55.9      56.3      55.5       0       3     250     256    1012    0.00
    04/24/2015 00:50      74    47.6      8.86        55.8      56.3      55.5       0       3     237     261    1012    0.00
    04/24/2015 01:00      75    47.8      8.86        55.6      56.3      55.3       0       1     215     222    1012    0.00
    04/24/2015 01:10      74    47.6      8.86        55.6      56.3      55.3       1       3     264     313    1012    0.00
    04/24/2015 01:20      72    47.2      8.86        55.7      56.3      55.3       2       5     264     248    1012    0.00
    04/24/2015 01:30      72    46.9      8.86        55.7      56.3      55.3       1       4     269     255    1012    0.00
    04/24/2015 01:40      72    46.8      8.86        55.8      56.3      55.3       1       3     269     241    1012    0.00
    04/24/2015 01:50      71    46.6      8.86        55.7      56.3      55.3       1       2     278     253    1012    0.00
    04/24/2015 02:00      71    46.5      8.86        55.7      56.3      55.3       1       3     274     265    1012    0.00
    04/24/2015 02:10      71    46.4      8.86        55.7      56.3      55.3       0       1     313     306    1012    0.00
    04/24/2015 02:20      71    46.4      8.86        55.7      56.3      55.3       0       0       0     225    1012    0.00
    04/24/2015 02:30      70    46.3      8.86        55.8      56.3      55.3       0       1     253     257    1012    0.00
    04/24/2015 02:40      70    46.3      8.86        55.8      56.3      55.3       0       0       0     234    1012    0.00
    04/24/2015 02:50      71    46.2      8.86        55.7      56.3      55.3       0       1     258     257    1012    0.00
    04/24/2015 03:00      71    46.2      8.86        55.7      56.3      55.3       0       1     258     258    1012    0.00
    04/24/2015 03:10      72    46.5      8.86        55.7      56.3      55.3       0       0       0     271    1012    0.00
    04/24/2015 03:20      71    46.7      8.86        55.7      56.3      55.3       0       0       0     142    1012    0.00
    04/24/2015 03:30      71    46.5      8.86        55.7      56.3      55.3       0       0       0     184    1012    0.00
    04/24/2015 03:40      72    46.7      8.86        55.7      56.3      55.3       0       1     252     251    1012    0.00
    04/24/2015 03:50      72    46.7      8.86        55.8      56.3      55.3       0       0       0     291    1012    0.00
    04/24/2015 04:00      72    47.0      8.86        55.9      56.3      55.3       0       1     171     167    1012    0.00
    04/24/2015 04:10      71    46.8      8.86        55.9      56.3      55.3       0       0       0     183    1012    0.00
    04/24/2015 04:20      71    46.7      8.86        55.9      56.3      55.3       0       2     258     258    1012    0.00
    04/24/2015 04:30      71    46.7      8.86        56.0      56.3      55.3       0       1     261     244    1012    0.00
    04/24/2015 04:40      72    46.9      8.86        56.0      56.3      55.3       0       0       0     289    1012    0.00
    04/24/2015 04:50      71    46.8      8.86        55.9      56.3      55.3       0       0       0     204    1012    0.00
    04/24/2015 05:00      72    46.9      8.86        55.9      56.3      55.3       0       0       0     245    1012    0.00
    04/24/2015 05:10      72    46.8      8.86        55.8      56.3      55.3       0       1     288     303    1012    0.00
    04/24/2015 05:20      71    46.7      8.86        55.9      56.3      55.3       0       2     253     249    1012    0.00
    04/24/2015 05:30      71    46.7      8.86        56.0      56.3      55.3       0       0       0     245    1012    0.00
    04/24/2015 05:40      70    46.8      8.86        56.1      56.3      55.3       0       0       0     230    1012    0.00
    04/24/2015 05:50      71    46.9      8.86        56.2      56.4      55.3       0       1     148     161    1012    0.00
    04/24/2015 06:00      71    47.0      8.86        56.3      56.4      55.3       1       2     151     152    1013    0.00
    04/24/2015 06:10      71    46.8      8.86        56.2      56.4      55.3       1       2     149     145    1013    0.00
    04/24/2015 06:20      71    46.9      8.86        56.2      56.6      55.3       0       0       0     158    1013    0.00
    04/24/2015 06:30      69    47.0      8.86        56.7      57.0      55.3       0       1     149     176    1013    0.00
    04/24/2015 06:40      68    47.1      8.86        57.2      57.5      55.3       0       1     187     229    1013    0.00
    04/24/2015 06:50      67    46.9      8.86        57.5      57.7      55.3       1       3     188     183    1013    0.00
    04/24/2015 07:00      67    47.0      8.86        57.8      58.1      55.3       1       4     168     177    1013    0.00
    04/24/2015 07:10      64    47.0      8.86        58.3      58.6      55.3       2       5     144     160    1013    0.00
    04/24/2015 07:20      65    46.4      8.86        58.3      58.6      55.3       1       5     104     150    1013    0.00
    04/24/2015 07:30      62    46.7      8.86        59.4      59.8      55.3       3       7     131      78    1013    0.00
    04/24/2015 07:40      61    46.6      8.86        59.9      60.5      55.3       2       6     107      74    1013    0.00
    04/24/2015 07:50      61    46.6      8.86        60.3      60.6      55.3       4      10     106     129    1013    0.00
    04/24/2015 08:00      61    46.4      8.86        60.0      60.6      55.3       4       8      99      60    1014    0.00
    04/24/2015 08:10      59    46.7      8.86        60.4      61.2      55.3       4       7     119     149    1014    0.00
    04/24/2015 08:20      61    46.6      8.86        60.4      61.2      55.3       4       9     133     149    1014    0.00
    04/24/2015 08:30      62    46.8      8.86        59.7      61.2      55.3       5      10     152     157    1014    0.00
    04/24/2015 08:40      62    46.5      8.86        59.8      61.2      55.3       4       8     140     151    1014    0.00
    04/24/2015 08:50      63    47.0      8.86        59.7      61.2      55.3       5       8     158     142    1014    0.00
    04/24/2015 09:00      62    47.0      8.86        59.6      61.2      55.3       3       7     135     152    1014    0.00
    04/24/2015 09:10      61    46.5      8.86        60.1      61.2      55.3       3       7     132     141    1014    0.00
    04/24/2015 09:20      63    46.8      8.86        59.8      61.2      55.3       5       8     153     142    1014    0.00
    04/24/2015 09:30      63    46.9      8.86        59.5      61.2      55.3       4      11     147     163    1014    0.00
    04/24/2015 09:40      64    47.0      8.86        59.5      61.2      55.3       4       8     145     149    1015    0.00
    04/24/2015 09:50      65    47.2      8.86        59.3      61.2      55.3       5      10     152     150    1015    0.00
    04/24/2015 10:00      65    47.3      8.86        59.2      61.2      55.3       5       9     161     184    1015    0.00
    04/24/2015 10:10      65    47.2      8.86        59.1      61.2      55.3       5       9     170     175    1015    0.00
    04/24/2015 10:20      63    47.2      8.86        59.1      61.2      55.3       4       8     164     183    1015    0.00
    04/24/2015 10:30      63    46.8      8.86        59.5      61.2      55.3       4       7     144     165    1015    0.00
    04/24/2015 10:40      62    47.0      8.86        60.1      61.2      55.3       3       8     136     151    1015    0.00
    04/24/2015 10:50      63    47.5      8.86        60.1      61.2      55.3       4       8     158     217    1015    0.00
    04/24/2015 11:00      62    47.7      8.86        60.3      61.2      55.3       5       8     160     147    1015    0.00
    04/24/2015 11:10      61    47.3      8.86        60.6      61.2      55.3       3       6     134     196    1014    0.00
    04/24/2015 11:20      62    47.2      8.86        60.6      61.2      55.3       4       9     131     139    1014    0.00
    04/24/2015 11:30      63    47.4      8.86        60.1      61.2      55.3       4       9     146     132    1014    0.00
    04/24/2015 11:40      62    47.6      8.86        60.2      61.2      55.3       4       7     145     145    1014    0.00
    04/24/2015 11:50      60    47.7      8.86        60.8      61.4      55.3       4       8     143      65    1014    0.00
    04/24/2015 12:00      59    47.4      8.86        61.3      61.7      55.3       4       9     119     162    1014    0.00
    04/24/2015 12:10      57    47.8      8.86        62.2      62.7      55.3       4       9     148     149    1014    0.00
    04/24/2015 12:20      59    47.3      8.86        62.1      62.7      55.3       4       8     137     159    1014    0.00
    04/24/2015 12:30      58    47.3      8.86        62.2      62.7      55.3       2       5     120     155    1014    0.00
    04/24/2015 12:40      58    47.4      8.86        62.2      62.7      55.3       4       8     145     149    1014    0.00
    04/24/2015 12:50      58    47.3      8.86        62.6      63.0      55.3       3       8     121     161    1014    0.00
    04/24/2015 13:00      55    47.7      8.86        63.1      64.5      55.3       4       6     140     156    1014    0.00
    04/24/2015 13:10      56    47.5      8.86        63.7      64.5      55.3       4       8     137     151    1014    0.00
    04/24/2015 13:20      56    47.3      8.86        63.4      64.5      55.3       5      10     131     129    1014    0.00
    04/24/2015 13:30      58    47.4      8.86        62.7      64.5      55.3       3       9     130     164    1014    0.00
    04/24/2015 13:40      58    47.2      8.86        62.2      64.5      55.3       4       8     126     110    1014    0.00
    04/24/2015 13:50      57    47.0      8.86        62.0      64.5      55.3       4       9     142     169    1014    0.00
    04/24/2015 14:00      59    46.8      8.86        61.8      64.5      55.3       5       9     154     147    1014    0.00
    04/24/2015 14:10      60    46.9      8.86        61.6      64.5      55.3       4       8     193     179    1014    0.00
    04/24/2015 14:20      60    47.5      8.86        61.3      64.5      55.3       4       8     202     169    1014    0.00
    04/24/2015 14:30      60    47.5      8.86        61.4      64.5      55.3       4       7     193     180    1014    0.00
    04/24/2015 14:40      60    47.4      8.86        61.2      64.5      55.3       3       7     186     163    1013    0.00
    04/24/2015 14:50      59    47.0      8.86        61.3      64.5      55.3       2       7     207     151    1013    0.00
    04/24/2015 15:00      59    46.8      8.86        61.3      64.5      55.3       2       5     221     222    1013    0.00
    04/24/2015 15:10      61    47.0      8.86        61.2      64.5      55.3       2       5     251     250    1013    0.00
    04/24/2015 15:20      62    47.5      8.86        60.8      64.5      55.3       3       7     280     283    1014    0.00
    04/24/2015 15:30      63    47.6      8.86        60.3      64.5      55.3       3       7     276     238    1014    0.00
    04/24/2015 15:40      63    47.5      8.86        60.1      64.5      55.3       3       9     283     252    1014    0.00
    04/24/2015 15:50      63    47.6      8.86        60.0      64.5      55.3       3       7     282     306    1014    0.00
    04/24/2015 16:00      63    47.5      8.86        60.0      64.5      55.3       3       6     284     284    1014    0.00
    04/24/2015 16:10      63    47.6      8.86        60.0      64.5      55.3       2       5     267     263    1014    0.00
    04/24/2015 16:20      63    47.6      8.86        60.1      64.5      55.3       2       5     277     261    1014    0.00
    04/24/2015 16:30      63    47.6      8.86        60.1      64.5      55.3       1       3     286     301    1014    0.00
    04/24/2015 16:40      63    47.7      8.86        60.2      64.5      55.3       2       4     280     291    1014    0.00
    04/24/2015 16:50      63    47.7      8.86        60.2      64.5      55.3       2       5     281     255    1014    0.00
    04/24/2015 17:00      64    47.7      8.86        60.2      64.5      55.3       3       5     257     258    1014    0.00
    04/24/2015 17:10      64    47.7      8.86        60.1      64.5      55.3       2       5     257     238    1014    0.00
    04/24/2015 17:20      64    47.8      8.86        60.0      64.5      55.3       1       3     280     273    1014    0.00
    04/24/2015 17:30      64    47.8      8.86        59.8      64.5      55.3       1       5     267     237    1014    0.00
    04/24/2015 17:40      64    47.8      8.86        59.9      64.5      55.3       2       4     287     297    1014    0.00
    04/24/2015 17:50      64    47.7      8.86        60.0      64.5      55.3       1       2     289     312    1014    0.00
    04/24/2015 18:00      64    47.8      8.86        60.1      64.5      55.3       1       3     296     348    1014    0.00
    04/24/2015 18:10      64    47.7      8.86        60.0      64.5      55.3       1       3     304     295    1014    0.00
    04/24/2015 18:20      64    47.7      8.86        59.9      64.5      55.3       0       2     294     277    1014    0.00
    04/24/2015 18:30      64    47.8      8.86        59.8      64.5      55.3       0       2     287     302    1014    0.00
    04/24/2015 18:40      64    47.7      8.86        59.7      64.5      55.3       0       1     287     293    1014    0.00
    04/24/2015 18:50      65    47.6      8.86        59.6      64.5      55.3       0       0       0     221    1014    0.00
    04/24/2015 19:00      65    47.7      8.86        59.6      64.5      55.3       0       3     153     152    1014    0.00
    04/24/2015 19:10      65    47.6      8.86        59.6      64.5      55.3       0       2     149     135    1014    0.00
    04/24/2015 19:20      65    47.5      8.86        59.5      64.5      55.3       0       1     233     260    1014    0.00
    04/24/2015 19:30      66    47.7      8.86        59.4      64.5      55.3       0       1     254     255    1014    0.00
    04/24/2015 19:40      65    47.8      8.86        59.3      64.5      55.3       0       1     310     270    1014    0.00
    04/24/2015 19:50      65    47.5      8.86        59.3      64.5      55.3       0       1      46      47    1014    0.00
    04/24/2015 20:00      65    47.4      8.86        59.2      64.5      55.3       0       0       0       1    1014    0.00
    04/24/2015 20:10      65    47.4      8.86        59.2      64.5      55.3       1       3      71      97    1014    0.00
    04/24/2015 20:20      66    47.6      8.86        59.2      64.5      55.3       3       4      77      96    1014    0.00
    04/24/2015 20:30      66    47.6      8.86        59.0      64.5      55.3       2       4      82      84    1015    0.00
    04/24/2015 20:40      65    47.7      8.86        59.0      64.5      55.3       1       3      95      79    1015    0.00
    04/24/2015 20:50      66    47.6      8.86        58.9      64.5      55.3       3       6      79      67    1015    0.00
    04/24/2015 21:00      67    47.6      8.86        58.6      64.5      55.3       2       5      80      66    1015    0.00
    04/24/2015 21:10      67    47.6      8.86        58.5      64.5      55.3       1       4      97      51    1015    0.00
    04/24/2015 21:20      68    47.7      8.86        58.3      64.5      55.3       2       4     101      92    1015    0.00
    04/24/2015 21:30      68    47.6      8.86        58.1      64.5      55.3       2       4      83      62    1015    0.00
    04/24/2015 21:40      68    47.6      8.86        58.1      64.5      55.3       1       3     107     102    1015    0.00
    04/24/2015 21:50      68    47.5      8.86        58.0      64.5      55.3       1       4     104      81    1015    0.00
    04/24/2015 22:00      68    47.5      8.86        58.0      64.5      55.3       2       3      88      80    1014    0.00
    04/24/2015 22:10      70    47.5      8.86        57.8      64.5      55.3       1       3      97      76    1014    0.00
    04/24/2015 22:20      70    47.5      8.86        57.3      64.5      55.3       1       3      77      75    1014    0.00
    04/24/2015 22:30      70    47.4      8.86        57.1      64.5      55.3       1       3      81      85    1014    0.00
    04/24/2015 22:40      71    47.5      8.86        56.9      64.5      55.3       1       3      67      59    1014    0.00
    04/24/2015 22:50      70    47.5      8.86        57.0      64.5      55.3       1       3      50      64    1014    0.00
    04/24/2015 23:00      70    47.5      8.86        57.0      64.5      55.3       2       3      67      70    1014    0.00
    04/24/2015 23:10      70    47.4      8.86        57.0      64.5      55.3       1       4      70      77    1014    0.00
    04/24/2015 23:20      70    47.4      8.86        57.0      64.5      55.3       1       3      71      73    1014    0.00
    04/24/2015 23:30      71    47.5      8.86        56.8      64.5      55.3       1       3      76      43    1014    0.00
    04/24/2015 23:40      72    47.5      8.86        56.5      64.5      55.3       1       2      42      45    1014    0.00
    04/24/2015 23:50      73    47.6      8.86        56.3      64.5      55.3       1       2      61      71    1014    0.00
    04/25/2015 00:00      74    47.6      8.86        56.0      64.5      55.3       1       2     131     112    1014    0.00
    04/25/2015 00:10      76    47.6      8.86        55.4      55.7      55.1       1       2     146     139    1014    0.00
    04/25/2015 00:20      77    47.7      8.86        55.1      55.7      54.7       0       1     135     137    1014    0.00
    04/25/2015 00:30      78    47.6      8.86        54.5      55.7      54.2       0       1     360      -0    1014    0.00
    04/25/2015 00:40      78    47.6      8.86        54.2      55.7      53.9       0       0       0      -0    1014    0.00
    04/25/2015 00:50      80    47.6      8.86        53.9      55.7      53.6       0       1     326     327    1014    0.00
    04/25/2015 01:00      81    47.6      8.86        53.5      55.7      53.3       0       1     317     323    1014    0.00
    04/25/2015 01:10      81    47.5      8.86        53.3      55.7      52.9       0       1     323     325    1014    0.00
    04/25/2015 01:20      82    47.1      8.86        52.6      55.7      52.4       0       1     317     316    1014    0.00
    04/25/2015 01:30      83    47.4      8.86        52.5      55.7      52.2       0       1     347     344    1013    0.00
    04/25/2015 01:40      83    47.2      8.86        52.3      55.7      51.9       0       0       0      24    1014    0.00
    04/25/2015 01:50      83    47.2      8.86        52.1      55.7      51.8       1       3      62      61    1014    0.00
    04/25/2015 02:00      82    47.5      8.86        52.7      55.7      51.8       1       2      56      60    1014    0.00
    04/25/2015 02:10      81    47.3      8.86        52.9      55.7      51.8       1       2      73      24    1013    0.00
    04/25/2015 02:20      82    47.1      8.86        52.7      55.7      51.8       0       0       0      97    1013    0.00
    04/25/2015 02:30      82    47.4      8.86        52.7      55.7      51.8       0       1     353     341    1013    0.00
    04/25/2015 02:40      82    47.5      8.86        52.9      55.7      51.8       0       0     263     255    1014    0.00
    04/25/2015 02:50      82    47.7      8.86        53.2      55.7      51.8       0       1     288     287    1014    0.00
    04/25/2015 03:00      81    47.7      8.86        53.2      55.7      51.8       0       0       0     186    1014    0.00
    04/25/2015 03:10      81    47.8      8.86        53.5      55.7      51.8       0       1     303     337    1014    0.00
    04/25/2015 03:20      80    47.8      8.86        53.6      55.7      51.8       0       1     259     256    1014    0.00
    04/25/2015 03:30      80    47.8      8.86        53.8      55.7      51.8       0       2      60      41    1013    0.00
    04/25/2015 03:40      79    47.8      8.86        53.9      55.7      51.8       1       3      60      50    1013    0.00
    04/25/2015 03:50      79    47.8      8.86        54.3      55.7      51.8       0       1     144     106    1013    0.00
    04/25/2015 04:00      79    47.8      8.86        54.3      55.7      51.8       1       2     159     163    1013    0.00
    04/25/2015 04:10      79    47.9      8.86        54.2      55.7      51.8       1       2     177     162    1013    0.00
    04/25/2015 04:20      79    47.8      8.86        54.1      55.7      51.8       0       1     203     202    1013    0.00
    04/25/2015 04:30      79    47.7      8.86        54.0      55.7      51.8       0       0       0     166    1013    0.00
    04/25/2015 04:40      79    47.6      8.86        54.0      55.7      51.8       0       0       0     170    1013    0.00
    04/25/2015 04:50      79    47.6      8.86        54.0      55.7      51.8       0       0       0     271    1013    0.00
    04/25/2015 05:00      79    47.7      8.86        54.0      55.7      51.8       0       0       0     275    1013    0.00
    04/25/2015 05:10      79    47.7      8.86        54.1      55.7      51.8       0       1     125     135    1013    0.00
    04/25/2015 05:20      79    47.7      8.86        54.1      55.7      51.8       1       2     105     134    1013    0.00
    04/25/2015 05:30      79    47.7      8.86        54.1      55.7      51.8       1       2     101     100    1013    0.00
    04/25/2015 05:40      79    47.6      8.86        54.0      55.7      51.8       0       2     173     155    1013    0.00
    04/25/2015 05:50      80    47.4      8.86        53.6      55.7      51.8       1       2     163     156    1013    0.00
    04/25/2015 06:00      80    47.4      8.86        53.4      55.7      51.8       1       2     175     191    1013    0.00
    04/25/2015 06:10      79    47.4      8.86        53.5      55.7      51.8       0       1     199     193    1013    0.00
    04/25/2015 06:20      78    47.3      8.86        53.7      55.7      51.8       0       1     205     198    1013    0.00
    04/25/2015 06:30      78    47.1      8.86        53.7      55.7      51.8       0       2     251     246    1013    0.00
    04/25/2015 06:40      78    47.1      8.86        53.7      55.7      51.8       0       2     220     212    1014    0.00
    04/25/2015 06:50      78    47.0      8.86        53.6      55.7      51.8       1       2     215     211    1014    0.00
    04/25/2015 07:00      77    47.1      8.86        54.0      55.7      51.8       1       3     266     248    1014    0.00
    04/25/2015 07:10      73    47.1      8.86        55.0      55.7      51.8       1       3     257     266    1014    0.00
    04/25/2015 07:20      72    46.8      8.86        55.5      56.0      51.8       1       2     245     255    1014    0.00
    04/25/2015 07:30      69    47.0      8.86        56.5      56.8      51.8       1       3     235     235    1014    0.00
    04/25/2015 07:40      68    46.6      8.86        56.6      56.8      51.8       1       4     164     144    1014    0.00
    04/25/2015 07:50      68    46.5      8.86        56.9      57.4      51.8       1       5     173     152    1014    0.00
    04/25/2015 08:00      64    46.7      8.86        58.1      59.0      51.8       1       4     138     140    1014    0.00
    04/25/2015 08:10      64    46.1      8.86        58.6      59.0      51.8       2       4      88     106    1014    0.00
    04/25/2015 08:20      62    46.1      8.86        58.8      59.1      51.8       2       4      60      68    1014    0.00
    04/25/2015 08:30      61    46.0      8.86        59.1      59.4      51.8       3       6     106      96    1014    0.00
    04/25/2015 08:40      61    45.9      8.86        59.4      59.7      51.8       3       5      74      66    1013    0.00
    04/25/2015 08:50      58    46.5      8.86        60.3      61.5      51.8       3       7     102      93    1014    0.00
    04/25/2015 09:00      59    46.3      8.86        61.1      61.5      51.8       3       8      85      56    1014    0.00
    04/25/2015 09:10      60    46.6      8.86        60.6      61.5      51.8       4       8     109      90    1013    0.00
    04/25/2015 09:20      59    46.7      8.86        60.9      61.5      51.8       3      10     125     161    1013    0.00
    04/25/2015 09:30      57    46.5      8.86        61.3      61.7      51.8       5      10      97     136    1013    0.00
    04/25/2015 09:40      55    45.9      8.86        61.5      62.3      51.8       4      10     110      96    1014    0.00
    04/25/2015 09:50      53    45.5      8.86        62.0      62.4      51.8       4       9     119     153    1013    0.00
    04/25/2015 10:00      55    44.7      8.86        61.6      62.4      51.8       3       8     115     127    1013    0.00
    04/25/2015 10:10      53    44.4      8.86        61.0      62.4      51.8       3       9     105     161    1013    0.00
    04/25/2015 10:20      55    44.2      8.86        60.8      62.4      51.8       4       9     114     161    1013    0.00
    04/25/2015 10:30      57    44.7      8.86        60.5      62.4      51.8       4       9     129     106    1013    0.00
    04/25/2015 10:40      58    45.3      8.86        60.3      62.4      51.8       3       7     128     109    1013    0.00
    04/25/2015 10:50      58    45.9      8.86        60.7      62.4      51.8       4       7     123     122    1013    0.00
    04/25/2015 11:00      59    46.2      8.86        60.8      62.4      51.8       3       8     166     238    1013    0.00
    04/25/2015 11:10      55    45.1      8.86        61.6      62.4      51.8       5      14     213     207    1013    0.00
    04/25/2015 11:20      53    45.8      8.86        62.8      63.4      51.8       6      14     217     249    1013    0.00
    04/25/2015 11:30      55    46.3      8.86        63.1      63.7      51.8       5      13     225     200    1013    0.00
    04/25/2015 11:40      57    46.0      8.86        62.6      63.8      51.8       5      13     247     257    1013    0.00
    04/25/2015 11:50      60    46.4      8.86        61.1      63.8      51.8       6      13     255     244    1012    0.00
    04/25/2015 12:00      60    47.2      8.86        61.4      63.8      51.8       4       8     227     239    1012    0.00
    04/25/2015 12:10      61    47.4      8.86        61.2      63.8      51.8       4       8     222     215    1012    0.00
    04/25/2015 12:20      61    47.8      8.86        61.2      63.8      51.8       4      10     233     191    1012    0.00
    04/25/2015 12:30      63    47.8      8.86        60.9      63.8      51.8       5      12     251     251    1012    0.00
    04/25/2015 12:40      63    48.2      8.86        60.8      63.8      51.8       4      10     223     195    1012    0.00
    04/25/2015 12:50      62    48.5      8.86        61.3      63.8      51.8       3       7     227     154    1012    0.00
    04/25/2015 13:00      64    48.7      8.86        61.3      63.8      51.8       3       9     227     250    1012    0.00
    04/25/2015 13:10      65    49.4      8.86        61.5      63.8      51.8       5      14     236     237    1012    0.00
    04/25/2015 13:20      67    49.9      8.86        61.2      63.8      51.8       6      13     240     260    1012    0.00
    04/25/2015 13:30      68    50.6      8.86        61.3      63.8      51.8       5       9     229     202    1012    0.00
    04/25/2015 13:40      71    50.9      8.86        60.9      63.8      51.8       5      14     223     243    1012    0.00
    04/25/2015 13:50      72    51.3      8.86        60.5      63.8      51.8       4      11     240     260    1011    0.00
    04/25/2015 14:00      70    51.4      8.86        60.9      63.8      51.8       3      10     231     214    1011    0.00
    04/25/2015 14:10      77    51.8      8.86        60.1      63.8      51.8       4      10     217     184    1011    0.00
    04/25/2015 14:20      77    52.1      8.86        59.1      63.8      51.8       4      11     226     267    1011    0.00
    04/25/2015 14:30      80    52.2      8.86        59.0      63.8      51.8       4       9     259     255    1011    0.00
    04/25/2015 14:40      79    52.5      8.86        58.8      63.8      51.8       3       7     267     249    1011    0.00
    04/25/2015 14:50      77    52.3      8.86        59.0      63.8      51.8       2       6     258     241    1011    0.00
    04/25/2015 15:00      79    52.7      8.86        59.6      63.8      51.8       2       4     162     138    1010    0.00
    04/25/2015 15:10      81    52.9      8.86        59.1      63.8      51.8       4       7      82      78    1010    0.00
    04/25/2015 15:20      82    52.6      8.86        58.0      63.8      51.8       3       7      58      44    1010    0.00
    04/25/2015 15:30      83    52.5      8.86        57.6      63.8      51.8       4       7      41      68    1010    0.00
    04/25/2015 15:40      80    52.6      8.86        58.3      63.8      51.8       4       7      39      37    1010    0.00
    04/25/2015 15:50      76    52.2      8.86        59.0      63.8      51.8       2       4      88     103    1010    0.00
    04/25/2015 16:00      74    52.0      8.86        59.8      63.8      51.8       2       4      76      61    1010    0.00
    04/25/2015 16:10      75    51.8      8.86        60.1      63.8      51.8       4       6      76      55    1010    0.00
    04/25/2015 16:20      75    52.0      8.86        59.8      63.8      51.8       2       5      71      64    1010    0.00
    04/25/2015 16:30      75    52.2      8.86        60.2      63.8      51.8       2       5      69      48    1010    0.00
    04/25/2015 16:40      72    51.9      8.86        60.4      63.8      51.8       1       4     118     247    1009    0.00
    04/25/2015 16:50      64    50.5      8.86        60.9      63.8      51.8       2       7     193     159    1009    0.00
    04/25/2015 17:00      61    48.6      8.86        61.7      63.8      51.8       2       6     222     194    1009    0.00
    04/25/2015 17:10      62    48.4      8.86        61.7      63.8      51.8       3       6     201     205    1010    0.00
    04/25/2015 17:20      70    48.9      8.86        61.4      63.8      51.8       4       8     168     184    1009    0.00
    04/25/2015 17:30      68    51.1      8.86        60.5      63.8      51.8       2       6     161     161    1010    0.00
    04/25/2015 17:40      63    48.5      8.86        60.5      63.8      51.8       3       7     175     157    1010    0.00
    04/25/2015 17:50      63    48.0      8.86        60.9      63.8      51.8       3       6     190     202    1010    0.00
    04/25/2015 18:00      61    48.0      8.86        61.3      63.8      51.8       3       5     188     164    1010    0.00
    04/25/2015 18:10      61    47.6      8.86        61.3      63.8      51.8       4       6     189     174    1010    0.00
    04/25/2015 18:20      61    47.2      8.86        60.7      63.8      51.8       3       7     194     191    1010    0.00
    04/25/2015 18:30      61    46.8      8.86        60.4      63.8      51.8       4       7     197     198    1010    0.00
    04/25/2015 18:40      62    46.6      8.86        59.8      63.8      51.8       4       9     211     179    1010    0.00
    04/25/2015 18:50      63    46.4      8.86        59.2      63.8      51.8       2       5     232     239    1010    0.00
    04/25/2015 19:00      63    46.6      8.86        59.0      63.8      51.8       4       7     251     263    1010    0.00
    04/25/2015 19:10      63    46.2      8.86        58.7      63.8      51.8       3       7     251     255    1010    0.00
    04/25/2015 19:20      64    46.1      8.86        58.3      63.8      51.8       3       7     260     250    1010    0.00
    04/25/2015 19:30      65    46.0      8.86        57.9      63.8      51.8       2       4     255     246    1010    0.00
    04/25/2015 19:40      66    45.9      8.86        57.4      63.8      51.8       2       6     238     257    1010    0.00
    04/25/2015 19:50      67    45.8      8.86        56.9      63.8      51.8       1       4     226     224    1010    0.00
    04/25/2015 20:00      67    45.7      8.86        56.5      63.8      51.8       2       6     234     253    1011    0.00
    04/25/2015 20:10      69    45.5      8.86        55.9      63.8      51.8       1       3     232     249    1011    0.00
    04/25/2015 20:20      69    45.6      8.86        55.7      63.8      51.8       3       6     242     256    1011    0.00
    04/25/2015 20:30      69    45.6      8.86        55.7      63.8      51.8       3       6     218     224    1011    0.00
    04/25/2015 20:40      70    45.6      8.86        55.3      63.8      51.8       4       8     167     143    1011    0.00
    04/25/2015 20:50      71    45.6      8.86        54.9      63.8      51.8       4       9     169     186    1011    0.00
    04/25/2015 21:00      71    45.4      8.86        54.7      63.8      51.8       3       6     190     192    1011    0.00
    04/25/2015 21:10      71    45.4      8.86        54.4      63.8      51.8       2       6     197     166    1011    0.00
    04/25/2015 21:20      71    45.4      8.86        54.5      63.8      51.8       3       8     259     262    1011    0.00
    04/25/2015 21:30      72    45.3      8.86        54.3      63.8      51.8       2       5     266     255    1011    0.00
    04/25/2015 21:40      72    45.4      8.86        54.1      63.8      51.8       2       5     280     258    1011    0.00
    04/25/2015 21:50      73    45.4      8.86        54.0      63.8      51.8       3       7     260     335    1011    0.00
    04/25/2015 22:00      70    45.3      8.86        54.5      63.8      51.8       2       6     294     328    1011    0.00
    04/25/2015 22:10      70    45.0      8.86        54.6      63.8      51.8       1       5     300     290    1011    0.00
    04/25/2015 22:20      71    45.0      8.86        54.2      63.8      51.8       1       4     288     281    1011    0.00
    04/25/2015 22:30      68    44.9      8.86        54.3      63.8      51.8       2       6     291     284    1011    0.00
    04/25/2015 22:40      70    44.5      8.86        54.7      63.8      51.8       3       7     228     203    1011    0.00
    04/25/2015 22:50      72    44.7      8.86        53.6      63.8      51.8       3       8     211     196    1011    0.00
    04/25/2015 23:00      72    44.7      8.86        53.4      63.8      51.8       3       7     273     211    1011    0.00
    04/25/2015 23:10      72    44.6      8.86        53.5      63.8      51.8       3       7     312      21    1011    0.00
    04/25/2015 23:20      70    44.6      8.86        53.7      63.8      51.8       2       6       5     152    1012    0.00
    04/25/2015 23:30      71    44.4      8.86        53.8      63.8      51.8       2       4     265     271    1012    0.00
    04/25/2015 23:40      71    44.4      8.86        53.4      63.8      51.8       2       5     340     285    1012    0.00
    04/25/2015 23:50      70    44.3      8.86        53.7      63.8      51.8       1       2     157      37    1012    0.00
    04/26/2015 00:00      68    44.0      8.86        54.1      63.8      51.8       2       5     275     287    1012    0.00
    04/26/2015 00:10      66    43.6      8.86        54.4      54.6      54.1       3       7     294     281    1012    0.00
    04/26/2015 00:20      52    42.3      8.86        55.6      58.0      54.1       4       8     296     282    1011    0.00
    04/26/2015 00:30      46    39.6      8.86        58.9      59.6      54.1       4       8     297     297    1011    0.00
    04/26/2015 00:40      31    36.1      8.86        60.8      63.5      54.1       5      15     318     336    1011    0.00
    04/26/2015 00:50      33    32.9      8.86        63.9      64.3      54.1       4      14     331     324    1011    0.00
    04/26/2015 01:00      33    33.2      8.86        63.0      64.3      54.1       2       8     325     283    1011    0.00
    04/26/2015 01:10      41    35.7      8.86        61.6      64.3      54.1       5       8     178     164    1011    0.00
    04/26/2015 01:20      44    37.3      8.86        59.7      64.3      54.1       2       5     290     349    1011    0.00
    04/26/2015 01:30      35    35.9      8.86        59.7      64.3      54.1       4       9     281     301    1011    0.00
    04/26/2015 01:40      34    33.1      8.86        62.1      64.3      54.1       5      16     315     328    1011    0.00
    04/26/2015 01:50      34    33.3      8.86        62.2      64.3      54.1       6      21     322     355    1011    0.00
    04/26/2015 02:00      35    33.6      8.86        62.1      64.3      54.1       6      21     324     332    1011    0.00
    04/26/2015 02:10      36    34.0      8.86        61.8      64.3      54.1       9      22     350     319    1011    0.00
    04/26/2015 02:20      38    34.9      8.86        61.3      64.3      54.1       8      19     359     334    1011    0.00
    04/26/2015 02:30      37    34.8      8.86        61.1      64.3      54.1       8      21      14     339    1011    0.00
    04/26/2015 02:40      39    35.1      8.86        61.0      64.3      54.1       7      17     352     344    1012    0.00
    04/26/2015 02:50      39    35.8      8.86        60.7      64.3      54.1       7      21     352       2    1012    0.00
    04/26/2015 03:00      39    35.6      8.86        60.6      64.3      54.1       8      21     346      45    1012    0.00
    04/26/2015 03:10      40    35.7      8.86        60.5      64.3      54.1       8      17       0     340    1012    0.00
    04/26/2015 03:20      40    36.0      8.86        60.3      64.3      54.1       9      21     349     341    1012    0.00
    04/26/2015 03:30      40    36.0      8.86        60.1      64.3      54.1       8      20     357       1    1012    0.00
    04/26/2015 03:40      41    36.2      8.86        60.1      64.3      54.1       8      19     354     350    1012    0.00
    04/26/2015 03:50      40    36.1      8.86        60.1      64.3      54.1       9      20     345      32    1012    0.00
    04/26/2015 04:00      40    35.8      8.86        60.3      64.3      54.1       9      19     340     339    1012    0.00
    04/26/2015 04:10      40    35.8      8.86        60.3      64.3      54.1       5      12     349     327    1012    0.00
    04/26/2015 04:20      40    35.9      8.86        60.3      64.3      54.1       7      16     357     315    1012    0.00
    04/26/2015 04:30      40    36.1      8.86        60.3      64.3      54.1       8      18     353     343    1013    0.00
    04/26/2015 04:40      38    35.5      8.86        60.5      64.3      54.1       7      20     355       8    1013    0.00
    04/26/2015 04:50      38    34.7      8.86        60.7      64.3      54.1       8      17     342     337    1013    0.00
    04/26/2015 05:00      38    34.6      8.86        60.6      64.3      54.1       6      16     332     352    1013    0.00
    04/26/2015 05:10      39    35.2      8.86        60.5      64.3      54.1       6      14     344     333    1013    0.00
    04/26/2015 05:20      41    36.0      8.86        60.1      64.3      54.1       6      13       4      23    1013    0.00
    04/26/2015 05:30      44    37.2      8.86        59.3      64.3      54.1       6      14      20      43    1013    0.00
    04/26/2015 05:40      45    37.4      8.86        59.0      64.3      54.1       7      13      40      20    1014    0.00
    04/26/2015 05:50      44    37.4      8.86        59.1      64.3      54.1       7      12      34      57    1014    0.00
    04/26/2015 06:00      42    37.2      8.86        59.4      64.3      54.1       5      11     360      30    1014    0.00
    04/26/2015 06:10      42    37.0      8.86        60.1      64.3      54.1       6      13     346     348    1014    0.00
    04/26/2015 06:20      41    36.7      8.86        60.5      64.3      54.1       5      14     341     336    1014    0.00
    04/26/2015 06:30      40    36.9      8.86        60.8      64.3      54.1       7      14     347     334    1014    0.00
    04/26/2015 06:40      40    36.8      8.86        61.0      64.3      54.1       6      21     334     337    1014    0.00
    04/26/2015 06:50      39    36.7      8.86        61.3      64.3      54.1       7      17     333     335    1014    0.00
    04/26/2015 07:00      40    36.9      8.86        61.5      64.3      54.1       6      14     323     306    1014    0.00
    04/26/2015 07:10      39    37.0      8.86        61.8      64.3      54.1       6      14     322     329    1014    0.00
    04/26/2015 07:20      39    37.0      8.86        62.1      64.3      54.1       6      15     311     311    1014    0.00
    04/26/2015 07:30      37    36.7      8.86        62.4      64.3      54.1       6      15     322     326    1014    0.00
    04/26/2015 07:40      35    35.9      8.86        63.2      64.3      54.1       5      13     327     330    1014    0.00
    04/26/2015 07:50      35    35.6      8.86        63.8      64.3      54.1       6      15     324     320    1014    0.00
    04/26/2015 08:00      34    35.6      8.86        64.2      64.9      54.1       5      13     328     341    1014    0.00
    04/26/2015 08:10      32    35.6      8.86        65.2      65.5      54.1       5      11     348       9    1014    0.00
    04/26/2015 08:20      33    35.6      8.86        65.5      65.8      54.1       6      15     345     334    1014    0.00
    04/26/2015 08:30      32    35.5      8.86        65.9      66.4      54.1       6      17     346     325    1014    0.00
    04/26/2015 08:40      32    35.2      8.86        66.1      66.4      54.1       7      17     347      94    1014    0.00
    04/26/2015 08:50      31    35.1      8.86        66.6      67.2      54.1       6      15     338     348    1014    0.00
    04/26/2015 09:00      30    34.8      8.86        66.7      67.2      54.1       7      16     336     336    1014    0.00
    04/26/2015 09:10      29    34.5      8.86        67.2      67.6      54.1       7      15     332     346    1014    0.00
    04/26/2015 09:20      28    34.3      8.86        67.8      68.4      54.1       7      16     332     331    1014    0.00
    04/26/2015 09:30      28    34.0      8.86        68.7      69.2      54.1       6      15     351       0    1014    0.00
    04/26/2015 09:40      27    34.0      8.86        69.3      70.0      54.1       6      13     337     320    1015    0.00
    04/26/2015 09:50      24    33.8      8.86        69.8      70.4      54.1       5      12     343     323    1015    0.00
    04/26/2015 10:00      24    33.3      8.86        71.1      72.1      54.1       3      10     339       3    1015    0.00
    04/26/2015 10:10      25    32.4      8.86        71.0      72.1      54.1       5      12     353     340    1015    0.00
    04/26/2015 10:20      23    32.8      8.86        71.5      72.3      54.1       4       8     333     327    1014    0.00
    04/26/2015 10:30      23    32.1      8.86        71.8      72.3      54.1       4      11     316     300    1014    0.00
    04/26/2015 10:40      24    32.7      8.86        72.0      73.0      54.1       4      10     293     253    1014    0.00
    04/26/2015 10:50      22    32.2      8.86        72.9      73.3      54.1       5       9     330     315    1014    0.00
    04/26/2015 11:00      22    32.5      8.86        73.5      74.2      54.1       3       9     293     274    1014    0.00
    04/26/2015 11:10      21    32.3      8.86        74.3      75.0      54.1       2      10     304     336    1014    0.00
    04/26/2015 11:20      21    30.9      8.86        74.0      75.0      54.1       3       8     348     325    1014    0.00
    04/26/2015 11:30      18    30.6      8.86        74.5      75.0      54.1       3       8     339     340    1014    0.00
    04/26/2015 11:40      20    28.5      8.86        74.1      75.0      54.1       4       9      16     317    1013    0.00
    04/26/2015 11:50      18    28.5      8.86        75.4      76.4      54.1       3       8     335       0    1013    0.00
    04/26/2015 12:00      17    28.4      8.86        75.3      76.4      54.1       3       7     291     293    1013    0.00
    04/26/2015 12:10      17    27.9      8.86        75.6      76.4      54.1       4      11     330     335    1013    0.00
    04/26/2015 12:20      16    27.7      8.86        76.9      77.7      54.1       4      11     329     326    1013    0.00
    04/26/2015 12:30      17    26.8      8.86        76.0      77.7      54.1       4      14     353     351    1013    0.00
    04/26/2015 12:40      16    26.8      8.86        76.6      77.7      54.1       5      11     353       6    1013    0.00
    04/26/2015 12:50      15    27.0      8.86        77.0      77.7      54.1       3       9     339      13    1013    0.00
    04/26/2015 13:00      15    26.8      8.86        77.8      78.2      54.1       4      12     315     272    1013    0.00
    04/26/2015 13:10      14    25.1      8.86        77.5      78.2      54.1       4      13     334     341    1013    0.00
    04/26/2015 13:20      13    23.8      8.86        77.9      78.5      54.1       5      12     331      15    1013    0.00
    04/26/2015 13:30      14    24.4      8.86        78.2      78.6      54.1       4      14     326     334    1013    0.00
    04/26/2015 13:40      14    24.0      8.86        78.3      79.0      54.1       5      12     316     331    1012    0.00
    04/26/2015 13:50      13    22.9      8.86        78.4      79.0      54.1       6      14     310     352    1012    0.00
    04/26/2015 14:00      13    22.6      8.86        78.1      79.0      54.1       7      12     303     305    1012    0.00
    04/26/2015 14:10      14    22.7      8.86        77.7      79.0      54.1       7      13     297     298    1012    0.00
    04/26/2015 14:20      14    23.6      8.86        77.1      79.0      54.1       8      18     303      13    1012    0.00
    04/26/2015 14:30      12    22.6      8.86        77.4      79.0      54.1       7      20     301     349    1012    0.00
    04/26/2015 14:40      13    22.5      8.86        77.2      79.0      54.1       7      17     307     347    1012    0.00
    04/26/2015 14:50      14    22.3      8.86        76.6      79.0      54.1       8      18     321     304    1012    0.00
    04/26/2015 15:00      13    22.8      8.86        76.8      79.0      54.1       7      21     317     334    1012    0.00
    04/26/2015 15:10      13    22.5      8.86        76.9      79.0      54.1       9      18     326     337    1012    0.00
    04/26/2015 15:20      14    22.9      8.86        76.2      79.0      54.1       9      22     336     336    1012    0.00
    04/26/2015 15:30      14    23.5      8.86        76.3      79.0      54.1       8      16     321     333    1012    0.00
    04/26/2015 15:40      15    23.9      8.86        75.8      79.0      54.1       7      16     319     266    1011    0.00
    04/26/2015 15:50      15    24.7      8.86        75.9      79.0      54.1       7      22     317     336    1011    0.00
    04/26/2015 16:00      15    25.0      8.86        76.0      79.0      54.1       6      14     306       9    1011    0.00
    04/26/2015 16:10      16    25.3      8.86        75.8      79.0      54.1       6      17     315     328    1011    0.00
    04/26/2015 16:20      16    25.6      8.86        75.7      79.0      54.1       7      17     321     333    1011    0.00
    04/26/2015 16:30      16    26.0      8.86        75.2      79.0      54.1       8      22     328     338    1011    0.00
    04/26/2015 16:40      16    26.1      8.86        74.9      79.0      54.1       8      22     325     324    1011    0.00
    04/26/2015 16:50      17    25.5      8.86        74.3      79.0      54.1       9      20     320     348    1011    0.00
    04/26/2015 17:00      17    25.6      8.86        73.7      79.0      54.1       9      23     319     327    1011    0.00
    04/26/2015 17:10      17    26.2      8.86        73.2      79.0      54.1       9      19     327     345    1011    0.00
    04/26/2015 17:20      18    26.6      8.86        73.1      79.0      54.1       7      17     333     322    1011    0.00
    04/26/2015 17:30      18    26.8      8.86        72.9      79.0      54.1       3      10     336     339    1011    0.00
    04/26/2015 17:40      17    26.6      8.86        73.1      79.0      54.1       3       8     301     306    1011    0.00
    04/26/2015 17:50      17    25.9      8.86        72.9      79.0      54.1       4      12     324     343    1011    0.00
    04/26/2015 18:00      17    25.6      8.86        72.7      79.0      54.1       2       8     257     326    1011    0.00
    04/26/2015 18:10      17    25.5      8.86        72.1      79.0      54.1       2       5     252     271    1011    0.00
    04/26/2015 18:20      18    25.4      8.86        71.5      79.0      54.1       1       3     301     353    1011    0.00
    04/26/2015 18:30      21    26.4      8.86        71.1      79.0      54.1       1       5     228     250    1011    0.00
    04/26/2015 18:40      21    28.3      8.86        70.2      79.0      54.1       1       4     286     267    1011    0.00
    04/26/2015 18:50      21    28.0      8.86        69.7      79.0      54.1       1       3     269     261    1011    0.00
    04/26/2015 19:00      22    28.0      8.86        69.3      79.0      54.1       1       4     310      23    1011    0.00
    04/26/2015 19:10      23    28.8      8.86        68.5      79.0      54.1       1       2     265     237    1011    0.00
    04/26/2015 19:20      23    28.7      8.86        68.1      79.0      54.1       1       3     279     286    1011    0.00
    04/26/2015 19:30      22    28.8      8.86        68.5      79.0      54.1       4      10     267     302    1011    0.00
    04/26/2015 19:40      23    29.4      8.86        68.9      79.0      54.1       3       7     276     272    1011    0.00
    04/26/2015 19:50      23    29.4      8.86        68.4      79.0      54.1       4      10     289     233    1011    0.00
    04/26/2015 20:00      23    29.4      8.86        68.4      79.0      54.1       4      11     289     260    1012    0.00
    04/26/2015 20:10      23    29.3      8.86        68.5      79.0      54.1       4      10     319      61    1012    0.00
    04/26/2015 20:20      23    29.2      8.86        68.4      79.0      54.1       2      10     335     321    1012    0.00
    04/26/2015 20:30      23    29.3      8.86        68.5      79.0      54.1       3      11     344     334    1012    0.00
    04/26/2015 20:40      23    29.4      8.86        68.3      79.0      54.1       2       7      23      93    1012    0.00
    04/26/2015 20:50      24    29.8      8.86        68.0      79.0      54.1       2      12     360     300    1012    0.00
    04/26/2015 21:00      24    29.9      8.86        67.9      79.0      54.1       4      13     343     338    1012    0.00
    04/26/2015 21:10      24    30.2      8.86        68.1      79.0      54.1       6      16     357     332    1012    0.00
    04/26/2015 21:20      25    30.4      8.86        67.9      79.0      54.1       5      14     344       9    1012    0.00
    04/26/2015 21:30      24    30.3      8.86        67.8      79.0      54.1       6      14     348     334    1012    0.00
    04/26/2015 21:40      25    30.3      8.86        68.2      79.0      54.1       7      14     345     340    1012    0.00
    04/26/2015 21:50      25    30.8      8.86        67.9      79.0      54.1       4      11     344     343    1012    0.00
    04/26/2015 22:00      26    30.8      8.86        67.6      79.0      54.1       3       7       1     340    1012    0.00
    04/26/2015 22:10      25    30.5      8.86        67.6      79.0      54.1       4      14       5      56    1012    0.00
    04/26/2015 22:20      25    30.6      8.86        67.7      79.0      54.1       7      12     337       0    1012    0.00
    04/26/2015 22:30      25    30.9      8.86        67.7      79.0      54.1       5      10     326     339    1012    0.00
    04/26/2015 22:40      26    31.1      8.86        67.5      79.0      54.1       4       8     333     338    1012    0.00
    04/26/2015 22:50      40    33.3      8.86        66.5      79.0      54.1       4       8     329     151    1012    0.00
    04/26/2015 23:00      46    41.4      8.86        63.6      79.0      54.1       3       7     110     134    1012    0.00
    04/26/2015 23:10      48    41.9      8.86        62.8      79.0      54.1       2       5      94      89    1012    0.00
    04/26/2015 23:20      52    43.4      8.86        62.1      79.0      54.1       2       6     110      96    1013    0.00
    04/26/2015 23:30      53    43.9      8.86        61.3      79.0      54.1       1       4     106      84    1013    0.00
    04/26/2015 23:40      54    43.9      8.86        61.0      79.0      54.1       1       3     116     112    1013    0.00
    04/26/2015 23:50      54    44.0      8.86        60.5      79.0      54.1       1       3      78      88    1013    0.00
    04/27/2015 00:00      54    44.0      8.86        60.6      79.0      54.1       1       2       5      10    1013    0.00
    04/27/2015 00:10      55    43.9      8.86        60.3      60.6      60.0       1       2     354     354    1013    0.00
    04/27/2015 00:20      55    43.9      8.86        60.0      60.6      59.8       1       4      13     348    1012    0.00
    04/27/2015 00:30      56    44.0      8.86        59.8      60.6      59.5       1       3      25      65    1012    0.00
    04/27/2015 00:40      57    44.1      8.86        59.2      60.6      58.8       1       4      33      43    1012    0.00
    04/27/2015 00:50      58    44.0      8.86        59.0      60.6      58.5       1       4     335     347    1012    0.00
    04/27/2015 01:00      58    44.0      8.86        58.7      60.6      58.4       1       5     320     335    1012    0.00
    04/27/2015 01:10      59    44.0      8.86        58.3      60.6      58.0       1       3     318     322    1012    0.00
    04/27/2015 01:20      58    43.9      8.86        57.8      60.6      57.4       1       5     323     337    1012    0.00
    04/27/2015 01:30      55    43.3      8.86        58.7      60.6      57.4       2       5     301     289    1012    0.00
    04/27/2015 01:40      52    42.1      8.86        58.7      60.6      57.4       2       3     301     298    1012    0.00
    04/27/2015 01:50      49    40.3      8.86        59.4      60.6      57.4       1       3     326      78    1012    0.00
    04/27/2015 02:00      55    42.4      8.86        59.4      60.6      57.4       2       4      97      96    1012    0.00
    04/27/2015 02:10      54    42.9      8.86        59.0      60.6      57.4       2       4      26      68    1012    0.00
    04/27/2015 02:20      36    40.1      8.86        59.4      61.3      57.4       2       8     344       2    1012    0.00
    04/27/2015 02:30      29    33.3      8.86        64.4      66.0      57.4       3       9     339     327    1012    0.00
    04/27/2015 02:40      27    32.3      8.86        66.6      67.3      57.4       5      16     339     335    1012    0.00
    04/27/2015 02:50      27    32.0      8.86        67.4      67.6      57.4       6      13     339     331    1012    0.00
    04/27/2015 03:00      27    32.0      8.86        67.2      67.6      57.4       6      15     340     323    1012    0.00
    04/27/2015 03:10      27    32.1      8.86        67.0      67.6      57.4       7      15     336     342    1012    0.00
    04/27/2015 03:20      27    32.1      8.86        66.8      67.6      57.4       6      17     335     333    1012    0.00
    04/27/2015 03:30      27    31.9      8.86        66.5      67.6      57.4       5      13     329     333    1012    0.00
    04/27/2015 03:40      28    31.9      8.86        66.2      67.6      57.4       4       9     318     326    1012    0.00
    04/27/2015 03:50      26    31.2      8.86        66.3      67.6      57.4       4      12     321     348    1012    0.00
    04/27/2015 04:00      24    29.9      8.86        66.6      67.6      57.4       4      12     322     338    1012    0.00
    04/27/2015 04:10      22    28.3      8.86        67.1      67.6      57.4       5      10     332       3    1012    0.00
    04/27/2015 04:20      21    26.8      8.86        67.6      67.8      57.4       5      14     338     323    1012    0.00
    04/27/2015 04:30      18    24.4      8.86        67.9      68.2      57.4       6      13     333     352    1012    0.00
    04/27/2015 04:40      18    22.6      8.86        68.1      68.3      57.4       4      10     334     346    1012    0.00
    04/27/2015 04:50      17    22.1      8.86        68.0      68.3      57.4       4      12     340     327    1012    0.00
    04/27/2015 05:00      17    21.6      8.86        67.9      68.3      57.4       4      13     333     338    1012    0.00
    04/27/2015 05:10      16    21.1      8.86        68.1      68.4      57.4       5      13     339     326    1012    0.00
    04/27/2015 05:20      16    20.8      8.86        68.2      68.4      57.4       4      10     349     348    1012    0.00
    04/27/2015 05:30      16    20.5      8.86        68.1      68.4      57.4       3      10     346     337    1012    0.00
    04/27/2015 05:40      16    20.3      8.86        68.5      68.9      57.4       4      12     347     313    1012    0.00
    04/27/2015 05:50      16    20.4      8.86        68.8      69.0      57.4       3       9     350     327    1012    0.00
    04/27/2015 06:00      15    20.3      8.86        69.2      69.7      57.4       4      13     345     355    1012    0.00
    04/27/2015 06:10      15    20.4      8.86        70.0      70.7      57.4       4      12     356     322    1012    0.00
    04/27/2015 06:20      14    20.3      8.86        71.1      71.5      57.4       5      13       1      41    1013    0.00
    04/27/2015 06:30      14    20.3      8.86        71.6      71.7      57.4       6      15     352     349    1013    0.00
    04/27/2015 06:40      14    20.2      8.86        72.2      72.8      57.4       6      15     346     321    1013    0.00
    04/27/2015 06:50      13    20.6      8.86        73.0      73.4      57.4       5      14       4     339    1013    0.00
    04/27/2015 07:00      13    20.6      8.86        74.0      74.5      57.4       5      17       6      30    1013    0.00
    04/27/2015 07:10      13    20.0      8.86        74.5      74.8      57.4       6      17      11       8    1013    0.00
    04/27/2015 07:20      13    19.7      8.86        74.5      74.8      57.4       6      14       5      39    1013    0.00
    04/27/2015 07:30      12    19.7      8.86        74.9      75.2      57.4       7      19       7       9    1013    0.00
    04/27/2015 07:40      12    19.4      8.86        75.0      75.6      57.4       7      18       9     333    1013    0.00
    04/27/2015 07:50      12    19.5      8.86        75.6      75.9      57.4       6      14      17     336    1013    0.00
    04/27/2015 08:00      11    19.0      8.86        75.8      76.0      57.4       7      19      19      39    1013    0.00
    04/27/2015 08:10      11    18.4      8.86        76.0      76.3      57.4       8      19      23      37    1014    0.00
    04/27/2015 08:20      11    18.6      8.86        76.4      76.7      57.4       7      19      16       8    1014    0.00
    04/27/2015 08:30      11    19.0      8.86        76.9      77.6      57.4       6      13       7       2    1014    0.00
    04/27/2015 08:40      11    18.9      8.86        77.4      77.7      57.4       6      14       5      21    1014    0.00
    04/27/2015 08:50      11    19.1      8.86        77.7      78.3      57.4       7      23      10      76    1014    0.00
    04/27/2015 09:00      11    19.1      8.86        78.1      78.4      57.4       7      17       1     343    1014    0.00
    04/27/2015 09:10      11    19.5      8.86        78.6      79.3      57.4       6      20      15      84    1014    0.00
    04/27/2015 09:20      11    19.4      8.86        78.8      79.3      57.4       8      18     358     342    1014    0.00
    04/27/2015 09:30      10    19.3      8.86        79.2      79.4      57.4       7      17     359      32    1014    0.00
    04/27/2015 09:40      11    18.9      8.86        78.7      79.4      57.4       8      29     351     333    1013    0.00
    04/27/2015 09:50      10    18.6      8.86        78.6      79.4      57.4      10      21     355     331    1013    0.00
    04/27/2015 10:00      10    18.4      8.86        79.0      79.6      57.4       8      17       2     346    1013    0.00
    04/27/2015 10:10      10    18.2      8.86        79.2      79.6      57.4      10      22     352     327    1013    0.00
    04/27/2015 10:20      10    18.5      8.86        79.6      80.0      57.4       8      18     352     355    1013    0.00
    04/27/2015 10:30      10    18.1      8.86        79.9      80.3      57.4       8      22     359      88    1013    0.00
    04/27/2015 10:40       9    17.8      8.86        80.2      80.5      57.4       8      17     356      14    1013    0.00
    04/27/2015 10:50       9    17.3      8.86        80.7      81.0      57.4       8      18       2     348    1013    0.00
    04/27/2015 11:00       9    17.2      8.86        80.9      81.7      57.4       6      15      13      32    1013    0.00
    04/27/2015 11:10       8    17.3      8.86        81.9      82.2      57.4       8      18       9     340    1013    0.00
    04/27/2015 11:20       8    16.5      8.86        81.3      82.2      57.4       7      19      15      43    1013    0.00
    04/27/2015 11:30       9    17.2      8.86        82.0      83.0      57.4       7      23      14       1    1013    0.00
    04/27/2015 11:40       9    16.8      8.86        82.5      83.0      57.4      10      23       3     344    1013    0.00
    04/27/2015 11:50       8    17.1      8.86        83.4      83.9      57.4       6      16      13      39    1012    0.00
    04/27/2015 12:00       8    16.6      8.86        83.3      83.9      57.4       8      20     352     341    1012    0.00
    04/27/2015 12:10       8    16.2      8.86        83.8      84.3      57.4       8      20     357      16    1012    0.00
    04/27/2015 12:20       8    16.3      8.86        84.0      84.8      57.4       7      15     352     340    1012    0.00
    04/27/2015 12:30       7    15.4      8.86        84.6      84.9      57.4       6      15     360     335    1012    0.00
    04/27/2015 12:40       7    15.0      8.86        85.0      85.3      57.4       6      13      20     333    1012    0.00
    04/27/2015 12:50       7    13.6      8.86        84.7      85.3      57.4       8      19      44      53    1012    0.00
    04/27/2015 13:00       7    14.4      8.86        85.4      86.1      57.4       8      20      15     322    1012    0.00
    04/27/2015 13:10       7    13.4      8.86        84.9      86.1      57.4      10      20      43      46    1012    0.00
    04/27/2015 13:20       7    12.7      8.86        84.8      86.1      57.4       9      21      35      29    1012    0.00
    04/27/2015 13:30      11    17.2      8.86        85.7      86.1      57.4       7      17      44      85    1011    0.00
    04/27/2015 13:40      11    24.0      8.86        84.8      86.1      57.4       5      13      69      64    1011    0.00
    04/27/2015 13:50      10    22.1      8.86        85.5      86.5      57.4       5      13      70      66    1011    0.00
    04/27/2015 14:00      11    22.4      8.86        85.3      86.5      57.4       6      14      78      75    1011    0.00
    04/27/2015 14:10      11    24.9      8.86        86.0      86.7      57.4       4      12      87      54    1011    0.00
    04/27/2015 14:20      10    24.9      8.86        85.3      86.7      57.4       4      10     105      81    1011    0.00
    04/27/2015 14:30      11    23.0      8.86        85.5      86.7      57.4       4       9      82      63    1011    0.00
    04/27/2015 14:40      11    24.7      8.86        85.7      86.7      57.4       4      12      67      68    1011    0.00